createdAt,value
2023-01-08T00:02:22.371Z,3.20
2023-01-08T00:04:49.269Z,3.10
2023-01-08T00:07:16.133Z,3.20
2023-01-08T00:09:43.805Z,3.10
2023-01-08T00:12:11.191Z,3.00
2023-01-08T00:14:37.989Z,3.00
2023-01-08T00:17:04.851Z,3.00
2023-01-08T00:19:31.731Z,2.90
2023-01-08T00:21:58.572Z,2.90
2023-01-08T00:24:25.432Z,3.00
2023-01-08T00:26:52.239Z,3.00
2023-01-08T00:29:19.109Z,2.90
2023-01-08T00:31:46.039Z,2.80
2023-01-08T00:34:12.829Z,2.70
2023-01-08T00:36:39.613Z,2.80
2023-01-08T00:39:06.590Z,2.80
2023-01-08T00:41:33.686Z,2.80
2023-01-08T00:44:00.533Z,2.80
2023-01-08T00:46:28.459Z,2.60
2023-01-08T00:48:55.257Z,2.70
2023-01-08T00:51:22.098Z,2.60
2023-01-08T00:53:48.959Z,2.70
2023-01-08T00:56:15.789Z,2.70
2023-01-08T00:58:42.779Z,2.60
2023-01-08T01:01:11.972Z,2.60
2023-01-08T01:03:39.099Z,2.60
2023-01-08T01:06:07.252Z,2.60
2023-01-08T01:08:35.357Z,2.60
2023-01-08T01:11:08.238Z,2.50
2023-01-08T01:13:35.083Z,2.50
2023-01-08T01:16:03.425Z,2.40
2023-01-08T01:18:31.682Z,2.40
2023-01-08T01:20:58.577Z,2.40
2023-01-08T01:23:25.888Z,2.40
2023-01-08T01:25:54.593Z,2.50
2023-01-08T01:28:22.337Z,2.50
2023-01-08T01:30:55.658Z,2.50
2023-01-08T01:33:22.917Z,2.50
2023-01-08T01:35:49.732Z,2.60
2023-01-08T01:38:16.689Z,2.60
2023-01-08T01:40:43.978Z,2.50
2023-01-08T01:43:14.687Z,2.50
2023-01-08T01:45:42.684Z,2.40
2023-01-08T01:48:14.941Z,2.40
2023-01-08T01:50:50.676Z,2.30
2023-01-08T01:53:31.413Z,2.30
2023-01-08T01:56:00.128Z,2.30
2023-01-08T01:58:29.336Z,2.30
2023-01-08T02:00:58.854Z,2.20
2023-01-08T02:03:30.973Z,2.20
2023-01-08T02:06:38.803Z,2.20
2023-01-08T02:09:18.155Z,2.10
2023-01-08T02:12:24.988Z,2.10
2023-01-08T02:15:11.846Z,2.10
2023-01-08T02:18:20.364Z,2.10
2023-01-08T02:20:54.734Z,2.00
2023-01-08T02:23:33.945Z,2.10
2023-01-08T02:26:06.047Z,2.10
2023-01-08T02:28:51.600Z,2.00
2023-01-08T02:31:20.680Z,2.00
2023-01-08T02:33:47.522Z,1.90
2023-01-08T02:36:14.375Z,1.90
2023-01-08T02:39:01.906Z,1.90
2023-01-08T02:41:42.099Z,2.00
2023-01-08T02:44:12.368Z,2.00
2023-01-08T02:46:41.976Z,2.00
2023-01-08T02:49:13.416Z,2.10
2023-01-08T02:51:45.580Z,2.00
2023-01-08T02:54:17.767Z,2.00
2023-01-08T02:56:51.738Z,2.00
2023-01-08T02:59:20.983Z,2.00
2023-01-08T03:01:48.416Z,2.00
2023-01-08T03:04:19.196Z,2.10
2023-01-08T03:06:46.720Z,2.00
2023-01-08T03:09:14.348Z,2.10
2023-01-08T03:11:57.707Z,2.00
2023-01-08T03:14:27.255Z,1.90
2023-01-08T03:17:20.123Z,1.90
2023-01-08T03:19:55.479Z,1.90
2023-01-08T03:22:24.015Z,2.00
2023-01-08T03:24:53.450Z,1.90
2023-01-08T03:27:28.480Z,1.80
2023-01-08T03:29:58.370Z,1.90
2023-01-08T03:32:27.707Z,1.90
2023-01-08T03:34:57.792Z,1.90
2023-01-08T03:37:34.528Z,1.90
2023-01-08T03:40:13.506Z,1.90
2023-01-08T03:42:40.645Z,1.90
2023-01-08T03:45:08.121Z,1.80
2023-01-08T03:47:37.478Z,1.60
2023-01-08T03:50:09.587Z,1.80
2023-01-08T03:52:36.487Z,1.80
2023-01-08T03:55:04.111Z,1.70
2023-01-08T03:57:30.900Z,1.70
2023-01-08T03:59:57.769Z,1.60
2023-01-08T04:02:24.803Z,1.70
2023-01-08T04:04:51.697Z,1.70
2023-01-08T04:07:18.827Z,1.70
2023-01-08T04:09:45.703Z,1.70
2023-01-08T04:12:12.782Z,1.70
2023-01-08T04:14:39.681Z,1.70
2023-01-08T04:17:06.559Z,1.70
2023-01-08T04:19:33.346Z,1.80
2023-01-08T04:22:00.180Z,1.70
2023-01-08T04:24:27.608Z,1.60
2023-01-08T04:26:54.423Z,1.70
2023-01-08T04:29:21.274Z,1.70
2023-01-08T04:31:48.170Z,1.70
2023-01-08T04:34:15.031Z,1.80
2023-01-08T04:36:41.842Z,1.80
2023-01-08T04:39:10.292Z,1.70
2023-01-08T04:41:37.187Z,1.80
2023-01-08T04:44:04.206Z,1.70
2023-01-08T04:46:31.148Z,1.70
2023-01-08T04:48:58.057Z,1.80
2023-01-08T04:51:26.377Z,1.60
2023-01-08T04:53:54.039Z,1.70
2023-01-08T04:56:20.890Z,1.60
2023-01-08T04:58:47.814Z,1.60
2023-01-08T05:01:20.195Z,1.60
2023-01-08T05:03:47.699Z,1.70
2023-01-08T05:06:14.684Z,1.50
2023-01-08T05:08:41.617Z,1.50
2023-01-08T05:11:08.546Z,1.70
2023-01-08T05:13:35.369Z,1.70
2023-01-08T05:16:02.548Z,1.70
2023-01-08T05:18:30.613Z,1.50
2023-01-08T05:21:05.171Z,1.50
2023-01-08T05:23:33.091Z,1.50
2023-01-08T05:26:00.644Z,1.50
2023-01-08T05:28:28.486Z,1.60
2023-01-08T05:30:56.073Z,1.50
2023-01-08T05:33:24.034Z,1.50
2023-01-08T05:35:51.017Z,1.40
2023-01-08T05:38:18.005Z,1.50
2023-01-08T05:40:44.828Z,1.40
2023-01-08T05:43:11.988Z,1.40
2023-01-08T05:45:38.914Z,1.30
2023-01-08T05:48:07.234Z,1.30
2023-01-08T05:50:34.679Z,1.30
2023-01-08T05:53:01.614Z,1.30
2023-01-08T05:55:29.810Z,1.20
2023-01-08T05:58:00.822Z,1.20
2023-01-08T06:00:27.935Z,1.20
2023-01-08T06:02:54.770Z,1.30
2023-01-08T06:05:21.789Z,1.30
2023-01-08T06:07:48.645Z,1.20
2023-01-08T06:10:15.581Z,1.20
2023-01-08T06:12:42.457Z,1.10
2023-01-08T06:15:11.421Z,0.90
2023-01-08T06:17:38.216Z,0.90
2023-01-08T06:20:05.927Z,0.80
2023-01-08T06:22:33.795Z,0.90
2023-01-08T06:25:00.915Z,0.80
2023-01-08T06:27:27.873Z,1.00
2023-01-08T06:29:54.963Z,0.80
2023-01-08T06:32:21.979Z,0.90
2023-01-08T06:34:48.846Z,0.80
2023-01-08T06:37:15.867Z,0.80
2023-01-08T06:39:42.649Z,0.70
2023-01-08T06:42:09.537Z,0.90
2023-01-08T06:44:36.375Z,0.70
2023-01-08T06:47:03.221Z,0.70
2023-01-08T06:49:30.276Z,0.70
2023-01-08T06:51:57.511Z,0.70
2023-01-08T06:54:24.347Z,0.60
2023-01-08T06:56:54.054Z,0.80
2023-01-08T06:59:21.760Z,0.90
2023-01-08T07:01:49.076Z,1.10
2023-01-08T07:04:16.485Z,1.10
2023-01-08T07:06:43.331Z,1.10
2023-01-08T07:09:13.506Z,0.90
2023-01-08T07:11:44.316Z,1.00
2023-01-08T07:14:11.583Z,1.10
2023-01-08T07:16:38.566Z,1.20
2023-01-08T07:19:05.822Z,1.30
2023-01-08T07:21:32.727Z,1.50
2023-01-08T07:23:59.786Z,1.60
2023-01-08T07:26:26.759Z,2.00
2023-01-08T07:28:53.910Z,2.20
2023-01-08T07:31:20.977Z,2.00
2023-01-08T07:33:48.001Z,2.00
2023-01-08T07:36:15.739Z,1.90
2023-01-08T07:38:43.005Z,1.80
2023-01-08T07:41:09.940Z,1.70
2023-01-08T07:43:36.916Z,1.60
2023-01-08T07:46:04.696Z,1.50
2023-01-08T07:48:31.768Z,1.40
2023-01-08T07:51:03.615Z,1.30
2023-01-08T07:53:30.646Z,1.20
2023-01-08T07:56:06.192Z,1.20
2023-01-08T07:58:33.381Z,1.20
2023-01-08T08:01:00.861Z,1.20
2023-01-08T08:03:27.996Z,1.20
2023-01-08T08:05:54.826Z,1.20
2023-01-08T08:08:22.119Z,1.10
2023-01-08T08:10:49.043Z,1.20
2023-01-08T08:13:15.876Z,1.20
2023-01-08T08:15:42.792Z,1.20
2023-01-08T08:18:10.076Z,1.10
2023-01-08T08:20:37.549Z,1.30
2023-01-08T08:23:10.399Z,1.40
2023-01-08T08:25:37.498Z,1.30
2023-01-08T08:28:05.154Z,1.30
2023-01-08T08:30:34.154Z,1.50
2023-01-08T08:33:03.388Z,1.50
2023-01-08T08:35:31.735Z,1.70
2023-01-08T08:37:58.967Z,1.50
2023-01-08T08:40:26.460Z,1.40
2023-01-08T08:43:01.160Z,1.40
2023-01-08T08:45:29.105Z,1.30
2023-01-08T08:47:56.166Z,1.40
2023-01-08T08:50:23.698Z,1.20
2023-01-08T08:52:50.596Z,1.20
2023-01-08T08:55:17.924Z,1.20
2023-01-08T08:57:46.698Z,1.20
2023-01-08T09:00:15.075Z,1.10
2023-01-08T09:02:42.085Z,1.10
2023-01-08T09:05:09.268Z,1.10
2023-01-08T09:07:36.167Z,1.20
2023-01-08T09:10:03.818Z,1.20
2023-01-08T09:12:30.649Z,1.30
2023-01-08T09:14:57.937Z,1.10
2023-01-08T09:17:25.976Z,1.10
2023-01-08T09:19:53.043Z,1.20
2023-01-08T09:22:20.349Z,1.30
2023-01-08T09:24:47.164Z,1.20
2023-01-08T09:27:14.445Z,1.10
2023-01-08T09:29:41.265Z,1.20
2023-01-08T09:32:08.982Z,1.20
2023-01-08T09:34:36.909Z,1.20
2023-01-08T09:37:04.873Z,1.20
2023-01-08T09:39:31.871Z,1.20
2023-01-08T09:42:02.515Z,1.30
2023-01-08T09:44:33.931Z,1.30
2023-01-08T09:47:01.091Z,1.20
2023-01-08T09:49:39.950Z,1.30
2023-01-08T09:52:10.032Z,1.30
2023-01-08T09:54:36.878Z,1.30
2023-01-08T09:57:03.913Z,1.30
2023-01-08T09:59:30.994Z,1.30
2023-01-08T10:01:58.335Z,1.30
2023-01-08T10:04:27.183Z,1.30
2023-01-08T10:07:22.088Z,1.30
2023-01-08T10:09:50.347Z,1.40
2023-01-08T10:12:26.443Z,1.40
2023-01-08T10:14:56.110Z,1.30
2023-01-08T10:17:37.435Z,1.30
2023-01-08T10:20:19.598Z,1.30
2023-01-08T10:22:50.070Z,1.30
2023-01-08T10:25:22.294Z,1.30
2023-01-08T10:28:01.827Z,1.40
2023-01-08T10:30:31.497Z,1.30
2023-01-08T10:33:06.791Z,1.30
2023-01-08T10:35:42.858Z,1.30
2023-01-08T10:39:01.258Z,1.40
2023-01-08T10:41:29.131Z,1.40
2023-01-08T10:44:05.440Z,1.30
2023-01-08T10:46:37.298Z,1.40
2023-01-08T10:49:06.576Z,1.60
2023-01-08T10:51:34.089Z,1.50
2023-01-08T10:54:13.607Z,1.50
2023-01-08T10:56:45.175Z,1.50
2023-01-08T10:59:19.810Z,1.50
2023-01-08T11:01:48.460Z,1.40
2023-01-08T11:04:51.137Z,1.40
2023-01-08T11:07:22.076Z,1.40
2023-01-08T11:09:51.889Z,1.40
2023-01-08T11:12:29.230Z,1.50
2023-01-08T11:14:56.569Z,1.40
2023-01-08T11:17:26.010Z,1.50
2023-01-08T11:19:55.718Z,1.50
2023-01-08T11:22:25.522Z,1.40
2023-01-08T11:24:53.404Z,1.50
2023-01-08T11:27:30.056Z,1.50
2023-01-08T11:30:07.626Z,1.60
2023-01-08T11:32:44.300Z,1.60
2023-01-08T11:35:36.036Z,1.60
2023-01-08T11:38:05.990Z,1.60
2023-01-08T11:41:10.708Z,1.40
2023-01-08T11:43:56.337Z,1.50
2023-01-08T11:46:50.801Z,1.50
2023-01-08T11:49:51.163Z,1.60
2023-01-08T11:52:45.409Z,1.50
2023-01-08T11:55:28.065Z,1.70
2023-01-08T11:58:13.599Z,1.60
2023-01-08T12:01:10.772Z,1.60
2023-01-08T12:03:49.622Z,3.20
2023-01-08T12:06:42.877Z,1.60
2023-01-08T12:09:09.641Z,1.50
2023-01-08T12:11:47.885Z,1.50
2023-01-08T12:14:42.593Z,1.50
2023-01-08T12:17:47.148Z,1.60
2023-01-08T12:20:36.720Z,1.50
2023-01-08T12:23:28.568Z,1.40
2023-01-08T12:26:01.453Z,1.50
2023-01-08T12:28:46.231Z,1.50
2023-01-08T12:31:41.286Z,1.50
2023-01-08T12:34:37.564Z,1.60
2023-01-08T12:37:27.361Z,1.60
2023-01-08T12:40:04.257Z,1.70
2023-01-08T12:42:33.433Z,1.70
2023-01-08T12:45:03.745Z,1.70
2023-01-08T12:47:34.529Z,1.70
2023-01-08T12:50:01.305Z,1.70
2023-01-08T12:52:53.705Z,1.70
2023-01-08T12:55:40.443Z,1.60
2023-01-08T12:58:29.714Z,1.70
2023-01-08T13:01:14.619Z,1.60
2023-01-08T13:03:42.717Z,1.60
2023-01-08T13:06:16.381Z,1.60
2023-01-08T13:08:50.095Z,1.70
2023-01-08T13:11:29.914Z,1.60
2023-01-08T13:14:08.076Z,1.60
2023-01-08T13:16:39.604Z,1.60
2023-01-08T13:19:08.199Z,1.60
2023-01-08T13:21:39.177Z,1.60
2023-01-08T13:24:24.016Z,1.60
2023-01-08T13:26:50.932Z,1.60
2023-01-08T13:29:27.224Z,1.60
2023-01-08T13:31:54.134Z,1.70
2023-01-08T13:34:42.340Z,1.70
2023-01-08T13:37:19.572Z,1.70
2023-01-08T13:39:53.704Z,1.60
2023-01-08T13:42:28.632Z,1.60
2023-01-08T13:45:04.102Z,1.70
2023-01-08T13:47:36.024Z,1.70
2023-01-08T13:50:18.334Z,1.70
2023-01-08T13:53:03.124Z,1.60
2023-01-08T13:55:34.429Z,1.70
2023-01-08T13:58:05.855Z,1.70
2023-01-08T14:00:46.680Z,1.80
2023-01-08T14:03:22.615Z,1.70
2023-01-08T14:05:51.267Z,1.70
2023-01-08T14:08:23.019Z,1.80
2023-01-08T14:10:50.189Z,1.80
2023-01-08T14:13:18.527Z,1.80
2023-01-08T14:15:46.048Z,1.80
2023-01-08T14:18:14.271Z,1.90
2023-01-08T14:20:44.427Z,1.80
2023-01-08T14:23:18.357Z,1.90
2023-01-08T14:25:49.477Z,1.90
2023-01-08T14:28:18.641Z,1.80
2023-01-08T14:30:50.236Z,1.80
2023-01-08T14:33:19.329Z,1.80
2023-01-08T14:35:46.895Z,1.80
2023-01-08T14:38:15.340Z,1.90
2023-01-08T14:41:04.304Z,1.90
2023-01-08T14:43:38.804Z,1.90
2023-01-08T14:46:32.194Z,1.90
2023-01-08T14:48:59.721Z,2.00
2023-01-08T14:51:29.523Z,1.90
2023-01-08T14:54:03.360Z,2.00
2023-01-08T14:56:36.026Z,1.90
2023-01-08T14:59:11.717Z,2.00
2023-01-08T15:01:39.224Z,2.00
2023-01-08T15:04:14.240Z,1.90
2023-01-08T15:06:41.877Z,2.00
2023-01-08T15:09:25.252Z,2.00
2023-01-08T15:11:55.115Z,2.00
2023-01-08T15:14:26.938Z,2.00
2023-01-08T15:16:56.277Z,2.10
2023-01-08T15:19:26.214Z,2.10
2023-01-08T15:21:58.587Z,2.10
2023-01-08T15:24:30.293Z,2.10
2023-01-08T15:26:58.839Z,2.20
2023-01-08T15:29:33.312Z,2.20
2023-01-08T15:32:12.247Z,2.20
2023-01-08T15:34:39.035Z,2.30
2023-01-08T15:37:06.082Z,2.30
2023-01-08T15:39:33.129Z,2.30
2023-01-08T15:42:48.271Z,2.30
2023-01-08T15:45:20.835Z,2.30
2023-01-08T15:47:47.770Z,2.30
2023-01-08T15:50:15.311Z,2.20
2023-01-08T15:52:43.562Z,2.30
2023-01-08T15:55:17.425Z,2.30
2023-01-08T15:57:44.922Z,2.30
2023-01-08T16:00:13.418Z,2.20
2023-01-08T16:02:46.666Z,2.20
2023-01-08T16:05:14.286Z,2.30
2023-01-08T16:07:41.089Z,2.40
2023-01-08T16:10:09.218Z,2.40
2023-01-08T16:12:36.386Z,2.50
2023-01-08T16:15:03.450Z,2.50
2023-01-08T16:17:30.648Z,2.40
2023-01-08T16:19:57.579Z,2.30
2023-01-08T16:22:24.373Z,2.40
2023-01-08T16:24:51.233Z,2.50
2023-01-08T16:27:18.143Z,2.50
2023-01-08T16:29:44.964Z,2.40
2023-01-08T16:32:11.896Z,2.40
2023-01-08T16:34:38.770Z,2.40
2023-01-08T16:37:06.560Z,2.40
2023-01-08T16:39:33.594Z,2.40
2023-01-08T16:42:00.584Z,2.50
2023-01-08T16:44:32.378Z,2.40
2023-01-08T16:47:01.771Z,2.40
2023-01-08T16:49:28.969Z,2.50
2023-01-08T16:51:55.847Z,2.50
2023-01-08T16:54:22.838Z,2.50
2023-01-08T16:56:49.642Z,2.50
2023-01-08T16:59:23.142Z,2.60
2023-01-08T17:01:51.753Z,2.60
2023-01-08T17:04:18.755Z,2.50
2023-01-08T17:06:46.900Z,2.60
2023-01-08T17:09:14.819Z,2.40
2023-01-08T17:11:42.004Z,2.50
2023-01-08T17:14:09.445Z,2.50
2023-01-08T17:16:36.464Z,2.60
2023-01-08T17:19:03.499Z,2.60
2023-01-08T17:21:30.336Z,2.60
2023-01-08T17:23:57.190Z,2.60
2023-01-08T17:26:24.189Z,2.60
2023-01-08T17:28:51.166Z,2.70
2023-01-08T17:31:19.669Z,2.70
2023-01-08T17:33:50.665Z,2.60
2023-01-08T17:36:26.309Z,2.60
2023-01-08T17:38:54.517Z,2.70
2023-01-08T17:41:41.604Z,2.70
2023-01-08T17:44:12.050Z,2.70
2023-01-08T17:46:42.507Z,2.70
2023-01-08T17:49:11.378Z,2.70
2023-01-08T17:51:40.751Z,2.80
2023-01-08T17:54:16.075Z,2.90
2023-01-08T17:56:43.646Z,2.80
2023-01-08T17:59:13.870Z,2.80
2023-01-08T18:01:40.754Z,2.80
2023-01-08T18:04:07.659Z,2.80
2023-01-08T18:06:35.074Z,2.80
2023-01-08T18:09:02.108Z,2.90
2023-01-08T18:11:29.130Z,2.90
2023-01-08T18:14:01.081Z,2.90
2023-01-08T18:16:28.956Z,2.80
2023-01-08T18:18:56.882Z,2.80
2023-01-08T18:21:24.213Z,2.80
2023-01-08T18:23:51.149Z,2.70
2023-01-08T18:26:20.685Z,2.70
2023-01-08T18:28:48.190Z,2.70
2023-01-08T18:31:15.789Z,2.70
2023-01-08T18:33:42.727Z,2.70
2023-01-08T18:36:12.457Z,2.70
2023-01-08T18:38:42.129Z,2.60
2023-01-08T18:41:11.345Z,2.70
2023-01-08T18:43:38.177Z,2.60
2023-01-08T18:46:07.954Z,2.50
2023-01-08T18:48:35.720Z,2.60
2023-01-08T18:51:07.192Z,2.70
2023-01-08T18:53:35.419Z,2.70
2023-01-08T18:56:02.292Z,2.60
2023-01-08T18:58:29.283Z,2.60
2023-01-08T19:00:56.574Z,2.50
2023-01-08T19:03:23.447Z,2.50
2023-01-08T19:05:50.370Z,2.60
2023-01-08T19:08:17.249Z,2.60
2023-01-08T19:10:44.056Z,2.50
2023-01-08T19:13:10.873Z,2.50
2023-01-08T19:15:38.331Z,2.60
2023-01-08T19:18:06.201Z,2.60
2023-01-08T19:20:33.013Z,2.50
2023-01-08T19:22:59.902Z,2.50
2023-01-08T19:25:27.259Z,2.60
2023-01-08T19:27:54.087Z,2.50
2023-01-08T19:30:20.949Z,2.60
2023-01-08T19:32:48.957Z,2.50
2023-01-08T19:35:15.840Z,2.40
2023-01-08T19:37:43.338Z,2.50
2023-01-08T19:40:10.854Z,2.40
2023-01-08T19:42:56.487Z,2.50
2023-01-08T19:45:23.450Z,2.50
2023-01-08T19:47:50.432Z,2.40
2023-01-08T19:50:17.552Z,2.40
2023-01-08T19:52:44.427Z,2.30
2023-01-08T19:55:11.263Z,2.30
2023-01-08T19:57:38.165Z,2.30
2023-01-08T20:00:05.738Z,2.40
2023-01-08T20:02:32.992Z,2.40
2023-01-08T20:05:00.233Z,2.40
2023-01-08T20:07:27.115Z,2.40
2023-01-08T20:09:54.103Z,2.30
2023-01-08T20:12:21.045Z,2.30
2023-01-08T20:14:48.380Z,2.40
2023-01-08T20:17:18.566Z,2.30
2023-01-08T20:19:47.870Z,2.40
2023-01-08T20:22:16.242Z,2.60
2023-01-08T20:24:43.136Z,2.70
2023-01-08T20:27:10.021Z,2.50
2023-01-08T20:29:36.978Z,2.50
2023-01-08T20:32:05.036Z,2.50
2023-01-08T20:34:32.441Z,2.60
2023-01-08T20:36:59.798Z,2.60
2023-01-08T20:39:26.670Z,2.60
2023-01-08T20:41:55.787Z,2.70
2023-01-08T20:44:31.478Z,2.70
2023-01-08T20:46:58.327Z,2.80
2023-01-08T20:49:26.707Z,2.80
2023-01-08T20:51:59.259Z,2.70
2023-01-08T20:54:27.766Z,2.80
2023-01-08T20:56:59.153Z,2.80
2023-01-08T20:59:26.865Z,2.80
2023-01-08T21:01:54.073Z,2.80
2023-01-08T21:04:21.478Z,2.90
2023-01-08T21:06:48.466Z,2.90
2023-01-08T21:09:16.689Z,3.00
2023-01-08T21:11:43.640Z,3.10
2023-01-08T21:14:11.001Z,3.10
2023-01-08T21:16:40.506Z,3.10
2023-01-08T21:19:10.378Z,3.10
2023-01-08T21:21:40.290Z,3.00
2023-01-08T21:24:09.421Z,3.00
2023-01-08T21:26:39.919Z,3.10
2023-01-08T21:29:07.942Z,3.10
2023-01-08T21:31:36.367Z,3.00
2023-01-08T21:34:04.665Z,3.00
2023-01-08T21:36:32.340Z,3.00
2023-01-08T21:39:01.060Z,3.00
2023-01-08T21:41:47.824Z,3.10
2023-01-08T21:44:39.138Z,3.00
2023-01-08T21:47:09.070Z,3.00
2023-01-08T21:49:36.723Z,3.00
2023-01-08T21:52:23.208Z,3.00
2023-01-08T21:54:50.474Z,3.00
2023-01-08T21:57:17.309Z,3.00
2023-01-08T21:59:44.555Z,3.10
2023-01-08T22:02:16.005Z,3.20
2023-01-08T22:04:43.965Z,3.20
2023-01-08T22:07:11.738Z,3.10
2023-01-08T22:09:38.836Z,3.10
2023-01-08T22:12:06.813Z,3.00
2023-01-08T22:14:34.288Z,3.10
2023-01-08T22:17:03.977Z,3.10
2023-01-08T22:19:30.997Z,3.20
2023-01-08T22:21:57.876Z,3.30
2023-01-08T22:24:24.689Z,3.20
2023-01-08T22:26:51.690Z,3.30
2023-01-08T22:29:19.100Z,3.10
2023-01-08T22:31:46.172Z,3.10
2023-01-08T22:34:17.135Z,3.10
2023-01-08T22:36:45.380Z,3.10
2023-01-08T22:39:12.539Z,3.20
2023-01-08T22:41:39.417Z,3.20
2023-01-08T22:44:06.529Z,3.20
2023-01-08T22:46:33.753Z,3.30
2023-01-08T22:49:00.577Z,3.20
2023-01-08T22:51:27.829Z,3.30
2023-01-08T22:53:55.987Z,3.20
2023-01-08T22:56:23.362Z,3.30
2023-01-08T22:58:50.219Z,3.30
2023-01-08T23:01:23.107Z,3.20
2023-01-08T23:03:51.190Z,3.20
2023-01-08T23:06:19.837Z,3.30
2023-01-08T23:08:47.665Z,3.20
2023-01-08T23:11:16.488Z,3.20
2023-01-08T23:13:43.856Z,3.30
2023-01-08T23:16:13.245Z,3.30
2023-01-08T23:18:41.036Z,3.40
2023-01-08T23:21:14.463Z,3.40
2023-01-08T23:23:41.499Z,3.30
2023-01-08T23:26:16.170Z,3.30
2023-01-08T23:28:43.327Z,3.40
2023-01-08T23:31:15.188Z,3.20
2023-01-08T23:33:42.417Z,3.30
2023-01-08T23:36:09.825Z,3.20
2023-01-08T23:38:36.643Z,3.30
2023-01-08T23:41:06.787Z,3.30
2023-01-08T23:43:33.616Z,3.40
2023-01-08T23:46:07.627Z,3.40
2023-01-08T23:48:35.258Z,3.40
2023-01-08T23:51:02.445Z,3.40
2023-01-08T23:53:29.900Z,3.40
2023-01-08T23:55:57.103Z,3.40
2023-01-08T23:58:24.182Z,3.40
